Time;durP1;ratioP1;P1;durP2;ratioP2;P2;SDS_P1;SDS_P2;PMS_P1;PMS_P2;Temp;Humidity;BMP_temperature;BMP_pressure;BME280_temperature;BME280_humidity;BME280_pressure;Samples;Min_cycle;Max_cycle;Signal;HPM_P1;HPM_P2
2022/01/01 00:00:16;;;;;;;38.53;15.68;;;;;;;12.79;100.00;102381.31;5274156;27;20031;-75
2022/01/01 00:02:46;;;;;;;37.65;14.88;;;;;;;12.81;100.00;102384.72;5284643;28;20028;-75
2022/01/01 00:05:17;;;;;;;41.05;15.30;;;;;;;12.83;100.00;102396.19;5280995;28;20069;-75
2022/01/01 00:07:47;;;;;;;44.00;16.13;;;;;;;12.80;100.00;102387.53;5268166;28;20106;-74
2022/01/01 00:10:20;;;;;;;36.65;16.48;;;;;;;12.76;100.00;102399.63;5278128;28;20055;-75
2022/01/01 00:12:51;;;;;;;33.33;16.25;;;;;;;12.77;100.00;102398.63;5273726;28;20627;-74
2022/01/01 00:15:21;;;;;;;41.28;16.23;;;;;;;12.77;100.00;102412.06;5271726;27;20031;-75
2022/01/01 00:17:52;;;;;;;49.83;16.77;;;;;;;12.76;100.00;102410.38;5275564;28;20028;-75
2022/01/01 00:20:22;;;;;;;41.13;15.68;;;;;;;12.74;100.00;102402.44;5282744;28;20030;-75
2022/01/01 00:22:53;;;;;;;39.95;17.05;;;;;;;12.73;100.00;102398.03;5274852;28;20027;-74
2022/01/01 00:25:23;;;;;;;41.78;17.63;;;;;;;12.75;100.00;102397.88;5278319;28;20057;-75
2022/01/01 00:27:54;;;;;;;39.40;17.20;;;;;;;12.74;100.00;102388.97;5277594;28;20019;-75
2022/01/01 00:30:24;;;;;;;41.53;16.48;;;;;;;12.76;100.00;102396.91;5271526;28;20019;-77
2022/01/01 00:32:55;;;;;;;38.72;16.77;;;;;;;12.76;100.00;102383.47;5272126;28;20112;-76
2022/01/01 00:35:25;;;;;;;37.40;16.58;;;;;;;12.70;100.00;102371.38;5277809;28;20032;-75
2022/01/01 00:37:56;;;;;;;38.83;15.48;;;;;;;12.66;100.00;102378.06;5278355;28;20106;-75
2022/01/01 00:40:26;;;;;;;36.60;15.07;;;;;;;12.56;100.00;102386.16;5263919;28;20028;-76
2022/01/01 00:42:57;;;;;;;39.63;15.85;;;;;;;12.49;100.00;102376.06;5277629;28;20028;-76
2022/01/01 00:45:27;;;;;;;39.25;14.75;;;;;;;12.40;100.00;102375.97;5264417;28;20036;-75
2022/01/01 00:47:58;;;;;;;32.78;15.73;;;;;;;12.33;100.00;102373.94;5282407;28;20469;-76
2022/01/01 00:50:28;;;;;;;39.45;16.55;;;;;;;12.26;100.00;102378.22;5274019;28;20012;-76
2022/01/01 00:52:59;;;;;;;40.63;16.73;;;;;;;12.25;100.00;102381.88;5267520;28;20027;-77
2022/01/01 00:55:29;;;;;;;36.15;15.15;;;;;;;12.30;100.00;102372.41;5276417;28;20260;-76
2022/01/01 00:58:00;;;;;;;37.40;15.63;;;;;;;12.36;100.00;102373.69;5270821;28;20023;-76
2022/01/01 01:00:31;;;;;;;39.17;15.43;;;;;;;12.40;100.00;102369.72;5271846;28;20513;-76
2022/01/01 01:03:08;;;;;;;42.63;15.95;;;;;;;12.44;100.00;102374.66;5280378;28;20271;-75
2022/01/01 01:05:39;;;;;;;35.13;14.02;;;;;;;12.46;100.00;102373.69;5278228;28;20019;-75
2022/01/01 01:08:12;;;;;;;36.60;14.52;;;;;;;12.45;100.00;102370.16;5270171;27;20103;-75
2022/01/01 01:13:33;;;;;;;30.15;11.93;;;;;;;12.36;100.00;102371.84;5277573;28;20019;-75
2022/01/01 01:16:04;;;;;;;25.85;11.55;;;;;;;12.30;100.00;102371.53;5270448;28;20044;-75
2022/01/01 01:18:34;;;;;;;41.08;14.20;;;;;;;12.26;100.00;102375.50;5271445;28;20036;-75
2022/01/01 01:21:06;;;;;;;30.30;12.00;;;;;;;12.25;100.00;102381.88;5275205;27;20409;-75
2022/01/01 01:23:37;;;;;;;37.67;13.48;;;;;;;12.25;100.00;102381.88;5277728;28;20204;-76
2022/01/01 01:26:08;;;;;;;30.13;12.32;;;;;;;12.24;100.00;102382.88;5274388;28;20689;-76
2022/01/01 01:28:46;;;;;;;24.92;11.57;;;;;;;12.20;100.00;102390.38;5279895;28;20028;-75
2022/01/01 01:31:17;;;;;;;28.08;12.00;;;;;;;12.12;100.00;102396.44;5276780;28;20045;-76
2022/01/01 01:33:48;;;;;;;31.23;11.70;;;;;;;12.07;100.00;102392.47;5263976;28;20055;-75
2022/01/01 01:36:19;;;;;;;39.97;11.43;;;;;;;12.04;100.00;102388.19;5277234;28;20115;-75
2022/01/01 01:38:49;;;;;;;26.80;11.52;;;;;;;12.01;100.00;102393.03;5262378;28;20527;-76
2022/01/01 01:41:20;;;;;;;33.85;11.27;;;;;;;11.99;100.00;102405.75;5265509;28;20122;-76
2022/01/01 01:43:53;;;;;;;21.35;9.85;;;;;;;11.99;100.00;102406.59;5275599;28;20020;-75
2022/01/01 01:46:26;;;;;;;33.80;11.00;;;;;;;12.03;100.00;102402.66;5279999;28;20020;-75
2022/01/01 01:48:56;;;;;;;30.92;10.18;;;;;;;12.08;100.00;102397.72;5284676;28;20024;-76
2022/01/01 01:51:27;;;;;;;33.58;9.50;;;;;;;12.13;100.00;102395.44;5267803;28;20551;-76
2022/01/01 01:53:58;;;;;;;24.88;8.88;;;;;;;12.22;100.00;102406.38;5262169;28;20028;-77
2022/01/01 01:56:28;;;;;;;24.65;9.55;;;;;;;12.28;100.00;102397.75;5283906;28;20024;-76
2022/01/01 01:58:59;;;;;;;24.17;8.98;;;;;;;12.32;100.00;102396.47;5270677;28;20671;-76
2022/01/01 02:01:30;;;;;;;21.73;8.50;;;;;;;12.34;100.00;102395.34;5284552;28;20027;-77
2022/01/01 02:04:01;;;;;;;19.90;7.78;;;;;;;12.35;100.00;102391.69;5272412;28;20103;-76
2022/01/01 02:06:32;;;;;;;26.92;8.40;;;;;;;12.37;100.00;102394.22;5272917;28;20119;-76
2022/01/01 02:09:03;;;;;;;19.42;7.43;;;;;;;12.39;100.00;102389.53;5280421;27;20072;-77
2022/01/01 02:11:34;;;;;;;26.20;7.50;;;;;;;12.38;100.00;102394.06;5263386;28;20035;-76
2022/01/01 02:14:22;;;;;;;21.77;7.53;;;;;;;12.42;100.00;102397.34;5281925;28;20399;-76
2022/01/01 02:17:08;;;;;;;19.55;7.55;;;;;;;12.45;100.00;102397.06;5269698;28;20024;-76
2022/01/01 02:19:54;;;;;;;17.73;7.22;;;;;;;12.47;100.00;102403.16;5274243;28;20023;-76
2022/01/01 02:22:26;;;;;;;23.83;7.45;;;;;;;12.47;100.00;102396.91;5269633;28;20395;-76
2022/01/01 02:24:57;;;;;;;16.85;7.15;;;;;;;12.44;100.00;102396.19;5269524;28;20075;-76
2022/01/01 02:27:28;;;;;;;24.95;7.60;;;;;;;12.40;100.00;102389.41;5263711;28;20016;-77
2022/01/01 02:29:58;;;;;;;24.02;6.97;;;;;;;12.40;100.00;102389.41;5278796;28;20016;-76
2022/01/01 02:32:29;;;;;;;16.73;7.20;;;;;;;12.41;100.00;102384.88;5284631;28;20023;-75
2022/01/01 02:34:59;;;;;;;17.98;7.63;;;;;;;12.35;100.00;102386.28;5281714;28;20397;-75
2022/01/01 02:37:31;;;;;;;26.85;6.82;;;;;;;12.34;100.00;102378.34;5267555;28;20425;-75
2022/01/01 02:40:05;;;;;;;13.77;6.32;;;;;;;12.36;100.00;102382.59;5278210;28;20023;-76
2022/01/01 02:42:39;;;;;;;17.05;6.50;;;;;;;12.37;100.00;102381.59;5275656;28;20020;-75
2022/01/01 02:45:12;;;;;;;27.13;7.22;;;;;;;12.41;100.00;102374.97;5266739;28;20016;-76
2022/01/01 02:47:43;;;;;;;27.38;7.18;;;;;;;12.42;100.00;102373.97;5280329;28;20088;-76
2022/01/01 02:50:13;;;;;;;19.80;7.20;;;;;;;12.40;100.00;102367.88;5276522;28;20024;-76
2022/01/01 02:52:44;;;;;;;16.85;7.13;;;;;;;12.41;100.00;102358.81;5275242;28;20024;-75
2022/01/01 02:55:15;;;;;;;27.65;7.60;;;;;;;12.40;100.00;102359.81;5277757;28;20027;-76
2022/01/01 02:57:46;;;;;;;19.35;6.68;;;;;;;12.41;100.00;102360.66;5269723;28;20024;-75
2022/01/01 03:00:30;;;;;;;18.98;5.90;;;;;;;12.33;100.00;102364.03;5266547;28;20051;-76
2022/01/01 03:03:00;;;;;;;21.73;6.30;;;;;;;12.25;100.00;102358.53;5274927;28;20576;-76
2022/01/01 03:05:31;;;;;;;28.85;6.30;;;;;;;12.15;100.00;102349.59;5270380;28;20469;-76
2022/01/01 03:08:02;;;;;;;26.63;6.30;;;;;;;12.04;100.00;102366.69;5278264;28;20113;-76
2022/01/01 03:10:33;;;;;;;20.50;6.90;;;;;;;11.95;100.00;102370.22;5269812;28;20028;-76
2022/01/01 03:13:04;;;;;;;22.33;5.93;;;;;;;11.85;100.00;102367.53;5287946;27;20489;-76
2022/01/01 03:15:37;;;;;;;16.65;6.75;;;;;;;11.82;100.00;102375.00;5273989;28;20051;-76
2022/01/01 03:18:08;;;;;;;18.58;6.90;;;;;;;11.80;100.00;102375.13;5287448;28;20062;-76
2022/01/01 03:20:39;;;;;;;28.80;7.88;;;;;;;11.81;100.00;102386.72;5288145;28;20122;-76
2022/01/01 03:23:09;;;;;;;23.25;6.45;;;;;;;11.81;100.00;102392.09;5273687;28;20027;-76
2022/01/01 03:25:40;;;;;;;24.75;6.82;;;;;;;11.84;100.00;102391.84;5266385;28;20107;-75
2022/01/01 03:28:10;;;;;;;16.50;6.18;;;;;;;11.87;100.00;102391.56;5268353;28;20725;-76
2022/01/01 03:30:41;;;;;;;17.92;6.28;;;;;;;11.88;100.00;102394.13;5278702;28;20447;-76
2022/01/01 03:33:11;;;;;;;35.50;9.82;;;;;;;11.91;100.00;102399.22;5280693;28;20028;-76
2022/01/01 03:35:42;;;;;;;16.13;6.85;;;;;;;11.96;100.00;102406.88;5266629;28;20024;-76
2022/01/01 03:38:12;;;;;;;25.33;7.70;;;;;;;11.99;100.00;102401.22;5285160;28;20035;-76
2022/01/01 03:40:43;;;;;;;24.13;8.35;;;;;;;12.01;100.00;102401.94;5268976;28;20024;-75
2022/01/01 03:43:14;;;;;;;18.77;7.65;;;;;;;12.04;100.00;102390.91;5279951;28;20026;-75
2022/01/01 03:45:44;;;;;;;21.63;7.70;;;;;;;12.06;100.00;102396.16;5278101;28;20059;-75
2022/01/01 03:48:14;;;;;;;20.90;6.18;;;;;;;12.07;100.00;102385.25;5277920;28;20445;-75
2022/01/01 03:50:45;;;;;;;21.38;6.50;;;;;;;12.10;100.00;102379.59;5265846;28;20089;-75
2022/01/01 03:53:16;;;;;;;20.38;7.13;;;;;;;12.12;100.00;102363.31;5275742;28;20408;-76
2022/01/01 03:55:47;;;;;;;21.02;6.50;;;;;;;12.12;100.00;102371.38;5265787;28;20024;-76
2022/01/01 03:58:17;;;;;;;19.17;6.55;;;;;;;12.07;100.00;102377.19;5265929;28;20039;-75
2022/01/01 04:00:47;;;;;;;17.55;6.88;;;;;;;12.09;100.00;102375.19;5268695;28;20099;-75
2022/01/01 04:03:18;;;;;;;21.15;7.07;;;;;;;12.10;100.00;102371.53;5280861;27;20118;-74
2022/01/01 04:05:49;;;;;;;17.92;5.65;;;;;;;12.08;100.00;102365.41;5269346;28;20019;-75
2022/01/01 04:08:19;;;;;;;21.98;5.95;;;;;;;12.07;100.00;102363.72;5286113;28;20488;-75
2022/01/01 04:10:50;;;;;;;15.00;6.07;;;;;;;12.06;100.00;102359.34;5280768;28;20115;-75
2022/01/01 04:13:20;;;;;;;20.05;5.97;;;;;;;11.99;100.00;102355.50;5278070;28;20076;-76
2022/01/01 04:15:51;;;;;;;17.73;6.82;;;;;;;11.97;100.00;102367.41;5272470;28;20023;-76
2022/01/01 04:21:11;;;;;;;17.77;6.10;;;;;;;11.77;100.00;102356.56;5265215;28;20157;-77
2022/01/01 04:23:44;;;;;;;14.88;5.55;;;;;;;11.73;100.00;102368.56;5282846;28;20027;-76
2022/01/01 04:26:15;;;;;;;21.48;6.43;;;;;;;11.64;100.00;102364.84;5285988;27;20281;-77
2022/01/01 04:28:46;;;;;;;14.80;6.70;;;;;;;11.56;100.00;102367.38;5280451;28;20043;-76
2022/01/01 04:31:16;;;;;;;16.75;6.72;;;;;;;11.47;100.00;102364.66;5263693;28;20081;-76
2022/01/01 04:33:46;;;;;;;26.50;6.63;;;;;;;11.44;100.00;102371.13;5285394;28;20030;-75
2022/01/01 04:36:17;;;;;;;21.33;6.03;;;;;;;11.42;100.00;102367.75;5270950;28;20109;-75
2022/01/01 04:38:47;;;;;;;20.58;5.88;;;;;;;11.40;100.00;102372.41;5272334;28;20056;-75
2022/01/01 04:41:18;;;;;;;18.48;5.82;;;;;;;11.33;100.00;102364.03;5267153;28;20032;-75
2022/01/01 04:43:49;;;;;;;18.13;5.80;;;;;;;11.28;100.00;102374.31;5275897;28;20355;-75
2022/01/01 04:46:19;;;;;;;21.70;6.53;;;;;;;11.23;100.00;102371.19;5281320;28;20062;-75
2022/01/01 04:48:50;;;;;;;17.10;5.70;;;;;;;11.18;100.00;102372.56;5285589;28;20023;-75
2022/01/01 04:51:20;;;;;;;15.98;5.88;;;;;;;11.11;100.00;102377.63;5281732;28;20020;-75
2022/01/01 04:53:57;;;;;;;20.38;5.75;;;;;;;11.05;100.00;102375.47;5272710;28;20108;-75
2022/01/01 04:56:32;;;;;;;20.50;5.72;;;;;;;11.02;100.00;102387.31;5264088;28;20035;-74
2022/01/01 04:59:03;;;;;;;18.75;4.97;;;;;;;10.95;100.00;102380.78;5263649;28;20393;-74
2022/01/01 05:01:33;;;;;;;17.30;5.70;;;;;;;10.89;100.00;102382.16;5273709;28;20030;-75
2022/01/01 05:04:04;;;;;;;22.77;7.40;;;;;;;10.84;100.00;102391.56;5278631;28;20016;-75
2022/01/01 05:06:34;;;;;;;18.17;5.88;;;;;;;10.79;100.00;102381.25;5274700;28;20404;-75
2022/01/01 05:09:05;;;;;;;15.93;5.85;;;;;;;10.76;100.00;102384.19;5283814;28;20055;-75
2022/01/01 05:11:35;;;;;;;19.02;5.63;;;;;;;10.71;100.00;102385.56;5273609;28;20533;-74
2022/01/01 05:14:06;;;;;;;18.52;6.22;;;;;;;10.68;100.00;102375.91;5264332;28;20025;-74
2022/01/01 05:16:37;;;;;;;13.20;5.47;;;;;;;10.63;100.00;102387.03;5264197;28;20384;-74
2022/01/01 05:19:08;;;;;;;16.45;5.43;;;;;;;10.61;100.00;102386.31;5269908;28;20070;-75
2022/01/01 05:21:38;;;;;;;15.32;5.82;;;;;;;10.55;100.00;102381.47;5285404;28;20210;-75
2022/01/01 05:24:09;;;;;;;22.08;6.05;;;;;;;10.57;100.00;102392.09;5271053;28;20066;-76
2022/01/01 05:26:39;;;;;;;27.95;6.82;;;;;;;10.53;100.00;102390.63;5283989;28;20026;-75
2022/01/01 05:29:10;;;;;;;14.50;5.53;;;;;;;10.47;100.00;102397.38;5273068;28;20063;-74
2022/01/01 05:31:40;;;;;;;18.15;6.28;;;;;;;10.45;100.00;102398.50;5267825;28;20019;-75
2022/01/01 05:34:11;;;;;;;16.80;6.45;;;;;;;10.45;100.00;102412.75;5273042;28;20092;-74
2022/01/01 05:36:41;;;;;;;23.42;5.90;;;;;;;10.47;100.00;102396.50;5268461;27;20073;-74
2022/01/01 05:39:12;;;;;;;16.80;6.55;;;;;;;10.45;100.00;102398.50;5264292;28;20106;-74
2022/01/01 05:41:42;;;;;;;19.30;6.22;;;;;;;10.41;100.00;102383.63;5269258;28;20049;-75
2022/01/01 05:44:13;;;;;;;17.60;6.07;;;;;;;10.32;100.00;102387.91;5274589;28;20027;-75
2022/01/01 05:46:43;;;;;;;12.63;5.28;;;;;;;10.24;100.00;102390.34;5276868;28;20111;-75
2022/01/01 05:49:14;;;;;;;19.65;6.45;;;;;;;10.26;100.00;102385.75;5277387;28;20431;-75
2022/01/01 05:51:44;;;;;;;17.58;6.70;;;;;;;10.20;100.00;102378.19;5267971;28;20028;-75
2022/01/01 05:54:15;;;;;;;22.20;6.40;;;;;;;10.12;100.00;102385.00;5266379;28;20286;-75
2022/01/01 05:56:45;;;;;;;18.40;6.15;;;;;;;10.10;100.00;102386.97;5276583;27;20107;-75
2022/01/01 05:59:16;;;;;;;23.30;7.38;;;;;;;10.11;100.00;102383.31;5281655;28;20103;-75
2022/01/01 06:01:46;;;;;;;15.90;5.90;;;;;;;10.12;100.00;102384.16;5274540;27;20027;-74
2022/01/01 06:04:17;;;;;;;40.47;8.57;;;;;;;10.15;100.00;102370.50;5268190;28;20485;-74
2022/01/01 06:06:47;;;;;;;22.67;6.47;;;;;;;10.11;100.00;102371.72;5276663;28;20023;-74
2022/01/01 06:09:18;;;;;;;17.15;6.43;;;;;;;10.12;100.00;102373.44;5286003;28;20023;-75
2022/01/01 06:11:48;;;;;;;16.17;6.57;;;;;;;10.09;100.00;102374.53;5276176;28;20381;-75
2022/01/01 06:14:21;;;;;;;17.15;6.50;;;;;;;10.13;100.00;102383.16;5282154;27;20127;-75
2022/01/01 06:16:51;;;;;;;21.15;8.57;;;;;;;10.17;100.00;102383.78;5268212;28;20035;-75
2022/01/01 06:19:22;;;;;;;26.38;7.13;;;;;;;10.18;100.00;102385.47;5288739;28;20411;-75
2022/01/01 06:21:52;;;;;;;17.55;6.65;;;;;;;10.21;100.00;102382.56;5275432;28;20482;-75
2022/01/01 06:24:23;;;;;;;18.98;7.13;;;;;;;10.22;100.00;102385.09;5276495;28;20035;-74
2022/01/01 06:26:53;;;;;;;19.73;6.88;;;;;;;10.27;100.00;102382.91;5272053;28;20055;-75
2022/01/01 06:29:23;;;;;;;16.38;7.20;;;;;;;10.33;100.00;102376.19;5288336;28;20077;-74
2022/01/01 06:31:54;;;;;;;18.05;7.05;;;;;;;10.40;100.00;102374.72;5285705;28;20475;-74
2022/01/01 06:34:24;;;;;;;15.50;6.43;;;;;;;10.47;100.00;102367.84;5264020;28;20093;-75
2022/01/01 06:36:55;;;;;;;17.60;6.25;;;;;;;10.58;100.00;102361.56;5264530;28;20034;-74
2022/01/01 06:39:25;;;;;;;18.10;6.50;;;;;;;10.64;100.00;102363.72;5282349;27;20390;-74
2022/01/01 06:41:56;;;;;;;17.63;6.82;;;;;;;10.67;100.00;102359.97;5291180;27;20648;-75
2022/01/01 06:44:27;;;;;;;22.40;6.60;;;;;;;10.72;100.00;102368.47;5288693;27;20023;-75
2022/01/01 06:46:57;;;;;;;21.10;6.78;;;;;;;10.76;100.00;102369.91;5287095;27;20024;-74
2022/01/01 06:49:28;;;;;;;22.17;8.70;;;;;;;10.79;100.00;102369.63;5287185;27;20488;-74
2022/01/01 06:51:58;;;;;;;25.70;7.40;;;;;;;10.79;100.00;102373.19;5286256;27;20297;-75
2022/01/01 06:54:28;;;;;;;22.13;6.57;;;;;;;10.82;100.00;102369.38;5287665;27;20016;-74
2022/01/01 06:56:59;;;;;;;18.60;7.95;;;;;;;10.85;100.00;102371.81;5296489;27;20023;-75
2022/01/01 06:59:29;;;;;;;21.23;6.57;;;;;;;10.88;100.00;102374.22;5295803;27;20035;-74
2022/01/01 07:02:00;;;;;;;27.25;6.90;;;;;;;10.87;100.00;102367.16;5293954;27;20098;-75
2022/01/01 07:04:30;;;;;;;21.02;7.40;;;;;;;10.89;100.00;102374.13;5290604;27;20083;-74
2022/01/01 07:07:01;;;;;;;16.23;6.38;;;;;;;10.90;100.00;102366.91;5290304;27;20110;-75
2022/01/01 07:09:31;;;;;;;23.80;6.53;;;;;;;10.88;100.00;102371.53;5290803;27;20012;-74
2022/01/01 07:12:02;;;;;;;20.00;7.45;;;;;;;10.87;100.00;102373.38;5294930;27;20016;-74
2022/01/01 07:14:32;;;;;;;13.40;6.30;;;;;;;10.85;100.00;102361.09;5282961;27;20281;-74
2022/01/01 07:17:03;;;;;;;16.63;6.45;;;;;;;10.88;100.00;102361.66;5287497;27;20032;-75
2022/01/01 07:19:33;;;;;;;25.50;6.90;;;;;;;10.84;100.00;102365.59;5287749;27;20029;-75
2022/01/01 07:22:04;;;;;;;18.70;7.20;;;;;;;10.79;100.00;102369.63;5287572;27;20106;-74
2022/01/01 07:24:34;;;;;;;22.45;6.30;;;;;;;10.74;100.00;102380.75;5290998;27;20030;-74
2022/01/01 07:27:05;;;;;;;23.02;7.55;;;;;;;10.70;100.00;102379.34;5291411;27;20022;-74
2022/01/01 07:29:36;;;;;;;25.40;8.40;;;;;;;10.63;100.00;102389.72;5298704;27;20046;-74
2022/01/01 07:32:07;;;;;;;25.08;7.30;;;;;;;10.57;100.00;102387.56;5298621;27;20035;-73
2022/01/01 07:34:37;;;;;;;19.65;7.80;;;;;;;10.54;100.00;102390.53;5294026;27;20038;-74
2022/01/01 07:37:08;;;;;;;23.50;7.95;;;;;;;10.48;100.00;102388.31;5294629;27;20028;-74
2022/01/01 07:39:38;;;;;;;22.02;6.82;;;;;;;10.46;100.00;102398.34;5285579;27;20035;-75
2022/01/01 07:42:09;;;;;;;15.05;7.22;;;;;;;10.40;100.00;102398.88;5296328;27;20490;-75
2022/01/01 07:44:40;;;;;;;20.98;7.20;;;;;;;10.31;100.00;102394.25;5288393;27;20020;-75
2022/01/01 07:47:11;;;;;;;20.13;7.00;;;;;;;10.26;100.00;102394.63;5279604;27;20035;-75
2022/01/01 07:49:42;;;;;;;21.20;8.05;;;;;;;10.20;100.00;102403.16;5286860;27;20143;-75
2022/01/01 07:52:12;;;;;;;20.20;7.45;;;;;;;10.13;100.00;102402.78;5285781;27;20357;-75
2022/01/01 07:54:43;;;;;;;19.60;7.10;;;;;;;10.11;100.00;102403.91;5293409;27;20060;-74
2022/01/01 07:57:13;;;;;;;17.42;7.88;;;;;;;10.13;100.00;102401.94;5296820;27;20450;-75
2022/01/01 07:59:44;;;;;;;16.75;7.72;;;;;;;10.08;100.00;102396.94;5285115;27;20024;-74
2022/01/01 08:02:14;;;;;;;23.25;8.65;;;;;;;10.10;100.00;102405.75;5284478;27;20538;-75
2022/01/01 08:04:45;;;;;;;16.80;7.07;;;;;;;10.11;100.00;102403.91;5286475;27;20384;-75
2022/01/01 08:07:16;;;;;;;28.02;8.80;;;;;;;10.12;100.00;102406.44;5271654;27;21105;-74
2022/01/01 08:09:46;;;;;;;18.88;7.65;;;;;;;10.13;100.00;102402.78;5285952;27;20028;-74
2022/01/01 08:12:17;;;;;;;18.55;7.95;;;;;;;10.15;100.00;102404.53;5286070;27;20110;-75
2022/01/01 08:14:47;;;;;;;21.23;7.65;;;;;;;10.16;100.00;102404.38;5294885;27;20464;-74
2022/01/01 08:17:18;;;;;;;29.38;7.70;;;;;;;10.15;100.00;102409.88;5295307;27;20411;-75
2022/01/01 08:19:48;;;;;;;18.65;6.32;;;;;;;10.16;100.00;102416.94;5290353;27;20019;-75
2022/01/01 08:22:19;;;;;;;21.65;8.63;;;;;;;10.14;100.00;102414.41;5289663;27;20034;-75
2022/01/01 08:24:49;;;;;;;22.77;7.40;;;;;;;10.16;100.00;102420.47;5293030;27;20019;-75
2022/01/01 08:27:20;;;;;;;19.30;8.18;;;;;;;10.18;100.00;102421.19;5294219;27;20027;-75
2022/01/01 08:29:51;;;;;;;29.23;9.45;;;;;;;10.22;100.00;102421.78;5291359;27;20071;-74
2022/01/01 08:32:21;;;;;;;18.10;7.38;;;;;;;10.23;100.00;102424.34;5285287;27;20023;-75
2022/01/01 08:34:52;;;;;;;22.48;7.43;;;;;;;10.24;100.00;102420.75;5293327;27;20054;-75
2022/01/01 08:37:23;;;;;;;23.08;8.05;;;;;;;10.22;100.00;102422.66;5284525;27;20066;-74
2022/01/01 08:39:54;;;;;;;18.08;8.50;;;;;;;10.26;100.00;102431.34;5289725;27;20011;-75
2022/01/01 08:42:25;;;;;;;20.83;9.27;;;;;;;10.28;100.00;102434.72;5291850;27;20585;-74
2022/01/01 08:44:55;;;;;;;21.73;8.52;;;;;;;10.30;100.00;102424.75;5285742;27;20114;-74
2022/01/01 08:47:26;;;;;;;19.65;8.10;;;;;;;10.29;100.00;102414.97;5297281;27;20050;-75
2022/01/01 08:49:57;;;;;;;16.83;7.63;;;;;;;10.21;100.00;102409.38;5294972;27;20027;-75
2022/01/01 08:52:28;;;;;;;17.42;7.40;;;;;;;10.09;100.00;102406.72;5294876;27;20019;-74
2022/01/01 08:54:59;;;;;;;21.77;6.82;;;;;;;9.99;100.00;102403.09;5294918;27;20024;-74
2022/01/01 08:57:31;;;;;;;21.25;6.70;;;;;;;10.02;100.00;102408.19;5289438;27;20020;-74
2022/01/01 09:00:07;;;;;;;19.88;6.70;;;;;;;10.05;100.00;102415.16;5294779;27;20701;-75
2022/01/01 09:02:38;;;;;;;23.27;7.05;;;;;;;10.12;100.00;102408.28;5283818;27;20489;-75
2022/01/01 09:05:10;;;;;;;17.00;7.00;;;;;;;10.19;100.00;102412.19;5284800;27;20029;-74
2022/01/01 09:07:40;;;;;;;19.83;7.50;;;;;;;10.28;100.00;102413.28;5290334;27;20042;-74
2022/01/01 09:10:11;;;;;;;19.52;7.40;;;;;;;10.37;100.00;102416.06;5295217;27;20019;-74
2022/01/01 09:12:41;;;;;;;19.20;7.35;;;;;;;10.48;100.00;102412.47;5290231;27;20015;-74
2022/01/01 09:15:12;;;;;;;18.58;7.10;;;;;;;10.50;100.00;102418.59;5293132;27;20520;-75
2022/01/01 09:17:42;;;;;;;22.33;7.60;;;;;;;10.58;100.00;102417.94;5286383;27;20055;-74
2022/01/01 09:20:13;;;;;;;16.48;6.82;;;;;;;10.63;100.00;102402.28;5288028;27;20114;-74
2022/01/01 09:22:44;;;;;;;18.35;7.45;;;;;;;10.66;100.00;102414.63;5291710;27;20015;-74
2022/01/01 09:25:14;;;;;;;19.90;8.18;;;;;;;10.67;100.00;102409.13;5293338;27;20019;-74
2022/01/01 09:27:44;;;;;;;20.92;7.20;;;;;;;10.71;100.00;102409.72;5289746;27;20042;-74
2022/01/01 09:30:15;;;;;;;18.45;6.15;;;;;;;10.66;100.00;102398.50;5283139;28;20035;-74
2022/01/01 09:32:45;;;;;;;18.42;6.85;;;;;;;10.63;100.00;102389.72;5269882;28;20566;-74
2022/01/01 09:35:17;;;;;;;14.10;7.07;;;;;;;10.70;100.00;102390.06;5280558;28;20019;-74
2022/01/01 09:37:47;;;;;;;17.55;6.57;;;;;;;10.75;100.00;102387.84;5282429;28;20030;-75
2022/01/01 09:40:18;;;;;;;16.38;6.68;;;;;;;10.79;100.00;102385.75;5267281;28;20020;-74
2022/01/01 09:42:50;;;;;;;14.63;6.60;;;;;;;10.83;100.00;102373.78;5274840;28;20102;-74
2022/01/01 09:45:21;;;;;;;18.25;7.45;;;;;;;10.93;100.00;102376.53;5280928;28;20019;-74
2022/01/01 09:47:51;;;;;;;15.80;7.00;;;;;;;10.94;100.00;102381.75;5268303;27;20026;-74
2022/01/01 09:50:22;;;;;;;16.90;6.47;;;;;;;10.98;100.00;102380.50;5270778;28;20028;-74
2022/01/01 09:52:52;;;;;;;17.35;6.90;;;;;;;11.02;100.00;102373.91;5263762;28;20024;-75
2022/01/01 09:55:23;;;;;;;16.48;7.10;;;;;;;11.01;100.00;102374.88;5270492;28;20031;-74
2022/01/01 09:57:53;;;;;;;17.67;6.25;;;;;;;11.08;100.00;102369.81;5268289;28;20024;-74
2022/01/01 10:00:24;;;;;;;17.58;7.05;;;;;;;11.12;100.00;102371.28;5269029;28;20073;-74
2022/01/01 10:02:55;;;;;;;16.80;6.10;;;;;;;11.10;100.00;102374.09;5266802;28;20522;-75
2022/01/01 10:05:26;;;;;;;10.30;5.55;;;;;;;11.11;100.00;102372.25;5277269;28;20016;-75
2022/01/01 10:08:00;;;;;;;10.35;5.78;;;;;;;11.17;100.00;102355.59;5276299;28;20388;-75
2022/01/01 10:10:33;;;;;;;15.07;5.72;;;;;;;11.19;100.00;102374.28;5276385;28;20027;-74
2022/01/01 10:13:11;;;;;;;17.63;5.63;;;;;;;11.33;100.00;102372.09;5271182;28;20385;-74
2022/01/01 10:15:42;;;;;;;15.25;6.10;;;;;;;11.53;100.00;102373.03;5265506;28;20024;-74
2022/01/01 10:18:12;;;;;;;12.73;5.70;;;;;;;11.75;100.00;102363.91;5281747;28;20032;-75
2022/01/01 10:20:44;;;;;;;13.40;5.88;;;;;;;11.82;100.00;102365.09;5280929;28;20076;-75
2022/01/01 10:23:16;;;;;;;16.08;6.07;;;;;;;11.80;100.00;102361.66;5280385;28;20263;-74
2022/01/01 10:28:35;;;;;;;15.73;5.25;;;;;;;11.82;100.00;102354.34;5277130;28;20052;-75
2022/01/01 10:31:08;;;;;;;12.63;5.07;;;;;;;11.96;100.00;102353.09;5271427;28;20255;-74
2022/01/01 10:33:44;;;;;;;13.45;6.38;;;;;;;11.93;100.00;102348.84;5267818;28;20507;-75
2022/01/01 10:36:15;;;;;;;15.07;5.05;;;;;;;11.93;100.00;102348.84;5281039;28;20469;-75
2022/01/01 10:38:45;;;;;;;13.07;5.03;;;;;;;12.04;100.00;102344.31;5273035;28;20639;-75
2022/01/01 10:41:17;;;;;;;10.90;4.85;;;;;;;12.16;100.00;102345.91;5274779;28;20420;-74
2022/01/01 10:43:48;;;;;;;10.75;4.72;;;;;;;12.27;100.00;102348.47;5281086;28;20204;-75
2022/01/01 10:46:19;;;;;;;8.75;4.53;;;;;;;12.36;100.00;102346.78;5277121;28;20116;-75
2022/01/01 10:51:36;;;;;;;11.57;4.43;;;;;;;12.40;100.00;102322.13;5277081;28;20372;-75
2022/01/01 10:54:10;;;;;;;12.85;4.53;;;;;;;12.42;100.00;102324.66;5275127;28;20664;-75
2022/01/01 10:56:40;;;;;;;9.85;4.68;;;;;;;12.35;100.00;102328.91;5284391;28;20023;-75
2022/01/01 10:59:12;;;;;;;12.38;4.57;;;;;;;12.58;100.00;102316.00;5271626;28;20057;-75
2022/01/01 11:01:44;;;;;;;8.70;4.03;;;;;;;12.79;100.00;102319.38;5284052;28;20040;-75
2022/01/01 11:04:16;;;;;;;9.27;4.00;;;;;;;13.03;100.00;102313.50;5280067;27;20445;-75
2022/01/01 11:06:46;;;;;;;16.10;4.05;;;;;;;13.13;100.00;102305.38;5274467;28;20094;-75
2022/01/01 11:09:17;;;;;;;9.60;4.45;;;;;;;13.03;100.00;102302.72;5270959;28;20031;-75
2022/01/01 11:11:49;;;;;;;11.18;5.22;;;;;;;13.19;100.00;102302.94;5283259;28;20034;-75
2022/01/01 11:14:20;;;;;;;8.50;3.63;;;;;;;13.35;100.00;102304.19;5284918;28;20180;-75
2022/01/01 11:16:51;;;;;;;7.40;3.60;;;;;;;13.36;100.00;102308.59;5283814;28;20047;-75
2022/01/01 11:19:24;;;;;;;9.27;3.83;;;;;;;13.57;100.00;102303.78;5285327;28;20031;-75
2022/01/01 11:21:55;;;;;;;7.00;2.92;;;;;;;13.70;100.00;102293.50;5280607;28;20027;-75
2022/01/01 11:24:27;;;;;;;10.45;3.20;;;;;;;13.76;100.00;102302.84;5273333;28;20303;-75
2022/01/01 11:26:58;;;;;;;6.38;3.25;;;;;;;13.77;100.00;102296.44;5285156;28;20031;-75
2022/01/01 11:29:29;;;;;;;7.60;3.30;;;;;;;13.62;100.00;102309.59;5284821;28;20031;-75
2022/01/01 11:32:01;;;;;;;7.00;3.13;;;;;;;13.37;100.00;102303.03;5283951;28;20083;-74
2022/01/01 11:34:36;;;;;;;7.55;3.70;;;;;;;13.22;100.00;102301.84;5271163;27;20027;-75
2022/01/01 11:37:07;;;;;;;6.47;2.80;;;;;;;13.24;100.00;102301.69;5270076;28;20031;-76